Buoy 46562

sailwx.info

Track history (hours):
 
Tides and Currents Weather Stations Pressure Air Temp Water Temp Dewpoint Dewpoint Depression Visibility Wind Speed Wind Dir Waves Ship Positions

Drifting buoy 46562

Last reported at 2015-Aug-03 03:00 UTC. Time now 2015-Aug-03 04:34 UTC.
Position N 40°39' W 131°04'.

Water temperature 18.6 ° C

Date/timePositionNaut miles runAvg speedWind from/ knotsBaromVisibWave heightAir tempDewpointWater temp
2015-Aug-03 03:00N 40°39' W 131°04'0 0.2 18.6
2015-Aug-03 02:00N 40°39' W 131°05'0 0.4 18.6
2015-Aug-03 01:00N 40°39' W 131°04'0 0.0 18.6
2015-Aug-03 00:00N 40°39' W 131°04'1 0.7 18.6
2015-Aug-02 22:00N 40°39' W 131°03'0 0.1 18.6
2015-Aug-02 21:00N 40°40' W 131°02'1 0.4 18.6
2015-Aug-02 19:00N 40°40' W 131°03'0 0.0 18.5
2015-Aug-02 18:00N 40°40' W 131°03'1 0.7 18.5
2015-Aug-02 17:00N 40°39' W 131°04'0 0.2 18.5
2015-Aug-02 15:00N 40°39' W 131°03'0 0.3 18.5
2015-Aug-02 14:00N 40°39' W 131°04'1 0.7 18.5
2015-Aug-02 13:00N 40°39' W 131°03'0 0.4 18.5
2015-Aug-02 12:00N 40°39' W 131°03'0 0.3 18.5
2015-Aug-02 11:00N 40°39' W 131°03'0 0.0 18.5
2015-Aug-02 10:00N 40°39' W 131°03'1 0.4 18.5
2015-Aug-02 07:00N 40°39' W 131°01'0 0.1 18.5
2015-Aug-02 06:00N 40°39' W 131°02'1 0.3 18.5
2015-Aug-02 04:00N 40°38' W 131°01'0 0.3 18.5
2015-Aug-02 03:00N 40°39' W 131°00'0 0.4 18.6
2015-Aug-02 02:00N 40°39' W 131°00'1 0.6 18.6
2015-Aug-02 01:00N 40°38' W 131°00'1 0.1 18.6
2015-Aug-01 21:00N 40°39' W 131°00'0 0.5 18.5
2015-Aug-01 20:00N 40°38' W 131°01'1 0.7 18.4
2015-Aug-01 18:00N 40°37' W 131°00'0 0.0 18.4
2015-Aug-01 17:00N 40°37' W 131°00'0 0.2 18.4
2015-Aug-01 15:00N 40°37' W 130°60'1 0.4 18.4
2015-Aug-01 13:00N 40°37' W 130°59'0 0.0 18.4
2015-Aug-01 12:00N 40°37' W 130°59'1 0.1 18.4
2015-Aug-01 06:00N 40°37' W 130°58'0 0.5 18.5
2015-Aug-01 05:00N 40°37' W 130°58'2 0.6 18.5
2015-Aug-01 02:00N 40°36' W 130°56'2 0.4 18.4
2015-Jul-31 22:00N 40°35' W 130°56'2 0.3 18.5
2015-Jul-31 16:00N 40°34' W 130°53'0 0.2 18.5
2015-Jul-31 14:00N 40°34' W 130°53'1 0.8 18.5
2015-Jul-31 13:00N 40°35' W 130°52'0 0.1 18.5
2015-Jul-31 09:00N 40°35' W 130°52'2 0.4 18.6
2015-Jul-31 03:00N 40°33' W 130°51'2 0.6 18.7
2015-Jul-30 23:00N 40°32' W 130°49'2 0.4 18.7
2015-Jul-30 19:00N 40°33' W 130°47'1 0.2 18.6
2015-Jul-30 14:00N 40°33' W 130°46'1 1.2 18.6
2015-Jul-30 13:00N 40°32' W 130°47'2 0.6 18.6
2015-Jul-30 10:00N 40°31' W 130°45'0 0.1 18.6
2015-Jul-30 05:00N 40°30' W 130°45'2 0.5 18.7
2015-Jul-30 02:00N 40°31' W 130°43'0 0.2 18.7
2015-Jul-30 00:00N 40°30' W 130°43'1 0.3 18.7
2015-Jul-29 20:00N 40°31' W 130°42'1 0.2 18.6
2015-Jul-29 16:00N 40°31' W 130°43'1 0.6 18.6
2015-Jul-29 14:00N 40°29' W 130°43'1 0.5 18.6
2015-Jul-29 12:00N 40°29' W 130°42'1 0.7 18.6
2015-Jul-29 11:00N 40°29' W 130°41'1 1.3 18.6
2015-Jul-29 10:00N 40°29' W 130°39'1 0.2 18.6
2015-Jul-29 07:00N 40°29' W 130°39'0 0.4 18.6
2015-Jul-29 06:00N 40°30' W 130°39'0 0.1 18.6
2015-Jul-29 03:00N 40°30' W 130°39'0 0.4 18.7
2015-Jul-29 02:00N 40°29' W 130°40'2 0.2 18.7
2015-Jul-28 15:00N 40°27' W 130°39'0 0.5 18.6
2015-Jul-28 14:00N 40°27' W 130°38'0 0.0 18.6
2015-Jul-28 13:00N 40°27' W 130°38'0 0.4 18.6
2015-Jul-28 12:00N 40°27' W 130°39'0 0.0 18.6
2015-Jul-28 11:00N 40°27' W 130°39'1 0.1 18.7
2015-Jul-28 03:00N 40°27' W 130°38'1 0.9 18.8
2015-Jul-28 02:00N 40°26' W 130°39'2 0.3 18.9
2015-Jul-27 20:00N 40°25' W 130°39'0 0.0 18.7
2015-Jul-27 13:00N 40°24' W 130°40'1 0.7 18.6
2015-Jul-27 12:00N 40°24' W 130°41'2 0.3 18.6
2015-Jul-27 05:00N 40°22' W 130°41'1 0.2 18.8
2015-Jul-27 02:00N 40°22' W 130°40'0 0.1 19.0
2015-Jul-26 22:00N 40°22' W 130°40'0 0.0 18.9
2015-Jul-26 21:00N 40°22' W 130°40'1 0.3 18.9
2015-Jul-26 18:00N 40°22' W 130°42'1 0.3 18.6
2015-Jul-26 15:00N 40°21' W 130°42'1 0.5 18.6
2015-Jul-26 13:00N 40°20' W 130°41'0 0.0 18.6
2015-Jul-26 12:00N 40°20' W 130°41'0 0.2 18.6
2015-Jul-26 11:00N 40°20' W 130°42'0 0.4 18.6
2015-Jul-26 10:00N 40°20' W 130°42'0 0.0 18.6
2015-Jul-26 07:00N 40°20' W 130°42'0 0.0 18.6
2015-Jul-26 06:00N 40°20' W 130°42'1 0.7 18.6
2015-Jul-26 05:00N 40°19' W 130°42'0 0.3 18.6
2015-Jul-26 04:00N 40°19' W 130°42'1 1.0 18.6
2015-Jul-26 03:00N 40°18' W 130°41'0 0.2 18.7
2015-Jul-26 02:00N 40°18' W 130°41'0 0.4 18.7
2015-Jul-26 01:00N 40°18' W 130°41'1 0.4 18.7
2015-Jul-25 22:00N 40°18' W 130°39'2 0.4 18.6
2015-Jul-25 17:00N 40°18' W 130°42'2 1.0 18.4
2015-Jul-25 15:00N 40°16' W 130°41'0 0.3 18.4
2015-Jul-25 14:00N 40°15' W 130°41'2 0.3 18.4
2015-Jul-25 06:00N 40°15' W 130°38'0 0.4 18.6
2015-Jul-25 05:00N 40°15' W 130°38'0 0.4 18.6
2015-Jul-25 04:00N 40°16' W 130°38'1 0.8 18.6
2015-Jul-25 03:00N 40°15' W 130°39'3 0.6 18.7
2015-Jul-24 21:00N 40°12' W 130°38'1 0.2 18.7
2015-Jul-24 17:00N 40°11' W 130°37'   18.3
Track history (hours):
 
Tides and Currents Weather Stations Pressure Air Temp Water Temp Dewpoint Dewpoint Depression Visibility Wind Speed Wind Dir Waves Ship Positions

Drifting buoy 46562

Last reported at 2015-Aug-03 03:00 UTC. Time now 2015-Aug-03 04:34 UTC.
Position N 40°39' W 131°04'.

Water temperature 18.6 ° C

Date/timePositionNaut miles runAvg speedWind from/ knotsBaromVisibWave heightAir tempDewpointWater temp
2015-Aug-03 03:00N 40°39' W 131°04'0 0.2 18.6
2015-Aug-03 02:00N 40°39' W 131°05'0 0.4 18.6
2015-Aug-03 01:00N 40°39' W 131°04'0 0.0 18.6
2015-Aug-03 00:00N 40°39' W 131°04'1 0.7 18.6
2015-Aug-02 22:00N 40°39' W 131°03'0 0.1 18.6
2015-Aug-02 21:00N 40°40' W 131°02'1 0.4 18.6
2015-Aug-02 19:00N 40°40' W 131°03'0 0.0 18.5
2015-Aug-02 18:00N 40°40' W 131°03'1 0.7 18.5
2015-Aug-02 17:00N 40°39' W 131°04'0 0.2 18.5
2015-Aug-02 15:00N 40°39' W 131°03'0 0.3 18.5
2015-Aug-02 14:00N 40°39' W 131°04'1 0.7 18.5
2015-Aug-02 13:00N 40°39' W 131°03'0 0.4 18.5
2015-Aug-02 12:00N 40°39' W 131°03'0 0.3 18.5
2015-Aug-02 11:00N 40°39' W 131°03'0 0.0 18.5
2015-Aug-02 10:00N 40°39' W 131°03'1 0.4 18.5
2015-Aug-02 07:00N 40°39' W 131°01'0 0.1 18.5
2015-Aug-02 06:00N 40°39' W 131°02'1 0.3 18.5
2015-Aug-02 04:00N 40°38' W 131°01'0 0.3 18.5
2015-Aug-02 03:00N 40°39' W 131°00'0 0.4 18.6
2015-Aug-02 02:00N 40°39' W 131°00'1 0.6 18.6
2015-Aug-02 01:00N 40°38' W 131°00'1 0.1 18.6
2015-Aug-01 21:00N 40°39' W 131°00'0 0.5 18.5
2015-Aug-01 20:00N 40°38' W 131°01'1 0.7 18.4
2015-Aug-01 18:00N 40°37' W 131°00'0 0.0 18.4
2015-Aug-01 17:00N 40°37' W 131°00'0 0.2 18.4
2015-Aug-01 15:00N 40°37' W 130°60'1 0.4 18.4
2015-Aug-01 13:00N 40°37' W 130°59'0 0.0 18.4
2015-Aug-01 12:00N 40°37' W 130°59'1 0.1 18.4
2015-Aug-01 06:00N 40°37' W 130°58'0 0.5 18.5
2015-Aug-01 05:00N 40°37' W 130°58'2 0.6 18.5
2015-Aug-01 02:00N 40°36' W 130°56'2 0.4 18.4
2015-Jul-31 22:00N 40°35' W 130°56'2 0.3 18.5
2015-Jul-31 16:00N 40°34' W 130°53'0 0.2 18.5
2015-Jul-31 14:00N 40°34' W 130°53'1 0.8 18.5
2015-Jul-31 13:00N 40°35' W 130°52'0 0.1 18.5
2015-Jul-31 09:00N 40°35' W 130°52'2 0.4 18.6
2015-Jul-31 03:00N 40°33' W 130°51'2 0.6 18.7
2015-Jul-30 23:00N 40°32' W 130°49'2 0.4 18.7
2015-Jul-30 19:00N 40°33' W 130°47'1 0.2 18.6
2015-Jul-30 14:00N 40°33' W 130°46'1 1.2 18.6
2015-Jul-30 13:00N 40°32' W 130°47'2 0.6 18.6
2015-Jul-30 10:00N 40°31' W 130°45'0 0.1 18.6
2015-Jul-30 05:00N 40°30' W 130°45'2 0.5 18.7
2015-Jul-30 02:00N 40°31' W 130°43'0 0.2 18.7
2015-Jul-30 00:00N 40°30' W 130°43'1 0.3 18.7
2015-Jul-29 20:00N 40°31' W 130°42'1 0.2 18.6
2015-Jul-29 16:00N 40°31' W 130°43'1 0.6 18.6
2015-Jul-29 14:00N 40°29' W 130°43'1 0.5 18.6
2015-Jul-29 12:00N 40°29' W 130°42'1 0.7 18.6
2015-Jul-29 11:00N 40°29' W 130°41'1 1.3 18.6
2015-Jul-29 10:00N 40°29' W 130°39'1 0.2 18.6
2015-Jul-29 07:00N 40°29' W 130°39'0 0.4 18.6
2015-Jul-29 06:00N 40°30' W 130°39'0 0.1 18.6
2015-Jul-29 03:00N 40°30' W 130°39'0 0.4 18.7
2015-Jul-29 02:00N 40°29' W 130°40'2 0.2 18.7
2015-Jul-28 15:00N 40°27' W 130°39'0 0.5 18.6
2015-Jul-28 14:00N 40°27' W 130°38'0 0.0 18.6
2015-Jul-28 13:00N 40°27' W 130°38'0 0.4 18.6
2015-Jul-28 12:00N 40°27' W 130°39'0 0.0 18.6
2015-Jul-28 11:00N 40°27' W 130°39'1 0.1 18.7
2015-Jul-28 03:00N 40°27' W 130°38'1 0.9 18.8
2015-Jul-28 02:00N 40°26' W 130°39'2 0.3 18.9
2015-Jul-27 20:00N 40°25' W 130°39'0 0.0 18.7
2015-Jul-27 13:00N 40°24' W 130°40'1 0.7 18.6
2015-Jul-27 12:00N 40°24' W 130°41'2 0.3 18.6
2015-Jul-27 05:00N 40°22' W 130°41'1 0.2 18.8
2015-Jul-27 02:00N 40°22' W 130°40'0 0.1 19.0
2015-Jul-26 22:00N 40°22' W 130°40'0 0.0 18.9
2015-Jul-26 21:00N 40°22' W 130°40'1 0.3 18.9
2015-Jul-26 18:00N 40°22' W 130°42'1 0.3 18.6
2015-Jul-26 15:00N 40°21' W 130°42'1 0.5 18.6
2015-Jul-26 13:00N 40°20' W 130°41'0 0.0 18.6
2015-Jul-26 12:00N 40°20' W 130°41'0 0.2 18.6
2015-Jul-26 11:00N 40°20' W 130°42'0 0.4 18.6
2015-Jul-26 10:00N 40°20' W 130°42'0 0.0 18.6
2015-Jul-26 07:00N 40°20' W 130°42'0 0.0 18.6
2015-Jul-26 06:00N 40°20' W 130°42'1 0.7 18.6
2015-Jul-26 05:00N 40°19' W 130°42'0 0.3 18.6
2015-Jul-26 04:00N 40°19' W 130°42'1 1.0 18.6
2015-Jul-26 03:00N 40°18' W 130°41'0 0.2 18.7
2015-Jul-26 02:00N 40°18' W 130°41'0 0.4 18.7
2015-Jul-26 01:00N 40°18' W 130°41'1 0.4 18.7
2015-Jul-25 22:00N 40°18' W 130°39'2 0.4 18.6
2015-Jul-25 17:00N 40°18' W 130°42'2 1.0 18.4
2015-Jul-25 15:00N 40°16' W 130°41'0 0.3 18.4
2015-Jul-25 14:00N 40°15' W 130°41'2 0.3 18.4
2015-Jul-25 06:00N 40°15' W 130°38'0 0.4 18.6
2015-Jul-25 05:00N 40°15' W 130°38'0 0.4 18.6
2015-Jul-25 04:00N 40°16' W 130°38'1 0.8 18.6
2015-Jul-25 03:00N 40°15' W 130°39'3 0.6 18.7
2015-Jul-24 21:00N 40°12' W 130°38'1 0.2 18.7
2015-Jul-24 17:00N 40°11' W 130°37'   18.3

Dump ship's entire track history